sensor_id;sensor_type;location;lat;lon;timestamp;P1;durP1;ratioP1;P2;durP2;ratioP2
30677;SDS011;17437;47.188;8.896;2023-09-30T00:00:13;12.73;;;6.85;;
30677;SDS011;17437;47.188;8.896;2023-09-30T00:02:46;12.58;;;6.62;;
30677;SDS011;17437;47.188;8.896;2023-09-30T00:05:20;10.20;;;5.97;;
30677;SDS011;17437;47.188;8.896;2023-09-30T00:07:53;10.68;;;5.83;;
30677;SDS011;17437;47.188;8.896;2023-09-30T00:10:26;9.80;;;6.35;;
30677;SDS011;17437;47.188;8.896;2023-09-30T00:12:59;8.70;;;5.78;;
30677;SDS011;17437;47.188;8.896;2023-09-30T00:15:32;10.98;;;6.35;;
30677;SDS011;17437;47.188;8.896;2023-09-30T00:18:05;13.68;;;7.37;;
30677;SDS011;17437;47.188;8.896;2023-09-30T00:20:39;12.80;;;6.15;;
30677;SDS011;17437;47.188;8.896;2023-09-30T00:23:12;13.25;;;6.72;;
30677;SDS011;17437;47.188;8.896;2023-09-30T00:25:44;13.05;;;7.03;;
30677;SDS011;17437;47.188;8.896;2023-09-30T00:28:18;10.40;;;5.87;;
30677;SDS011;17437;47.188;8.896;2023-09-30T00:30:51;9.43;;;6.45;;
30677;SDS011;17437;47.188;8.896;2023-09-30T00:33:24;11.43;;;5.62;;
30677;SDS011;17437;47.188;8.896;2023-09-30T00:35:56;10.95;;;5.58;;
30677;SDS011;17437;47.188;8.896;2023-09-30T00:38:30;9.88;;;5.60;;
30677;SDS011;17437;47.188;8.896;2023-09-30T00:41:02;10.25;;;5.78;;
30677;SDS011;17437;47.188;8.896;2023-09-30T00:43:35;10.43;;;5.97;;
30677;SDS011;17437;47.188;8.896;2023-09-30T00:46:14;14.25;;;7.17;;
30677;SDS011;17437;47.188;8.896;2023-09-30T00:48:44;9.80;;;5.28;;
30677;SDS011;17437;47.188;8.896;2023-09-30T00:51:18;9.60;;;5.90;;
30677;SDS011;17437;47.188;8.896;2023-09-30T00:53:52;11.33;;;5.97;;
30677;SDS011;17437;47.188;8.896;2023-09-30T00:56:28;10.32;;;5.75;;
30677;SDS011;17437;47.188;8.896;2023-09-30T00:59:01;9.50;;;5.37;;
30677;SDS011;17437;47.188;8.896;2023-09-30T01:01:34;14.90;;;6.33;;
30677;SDS011;17437;47.188;8.896;2023-09-30T01:04:07;10.80;;;6.03;;
30677;SDS011;17437;47.188;8.896;2023-09-30T01:06:40;13.72;;;8.08;;
30677;SDS011;17437;47.188;8.896;2023-09-30T01:09:13;12.78;;;7.30;;
30677;SDS011;17437;47.188;8.896;2023-09-30T01:11:46;10.05;;;5.85;;
30677;SDS011;17437;47.188;8.896;2023-09-30T01:14:25;11.10;;;6.35;;
30677;SDS011;17437;47.188;8.896;2023-09-30T01:16:59;12.45;;;6.80;;
30677;SDS011;17437;47.188;8.896;2023-09-30T01:19:32;10.53;;;6.00;;
30677;SDS011;17437;47.188;8.896;2023-09-30T01:22:04;14.07;;;6.33;;
30677;SDS011;17437;47.188;8.896;2023-09-30T01:24:39;14.45;;;8.83;;
30677;SDS011;17437;47.188;8.896;2023-09-30T01:27:12;12.45;;;6.97;;
30677;SDS011;17437;47.188;8.896;2023-09-30T01:29:47;9.38;;;5.58;;
30677;SDS011;17437;47.188;8.896;2023-09-30T01:32:20;10.68;;;6.05;;
30677;SDS011;17437;47.188;8.896;2023-09-30T01:34:53;10.15;;;6.08;;
30677;SDS011;17437;47.188;8.896;2023-09-30T01:37:27;11.18;;;6.65;;
30677;SDS011;17437;47.188;8.896;2023-09-30T01:40:00;9.48;;;5.62;;
30677;SDS011;17437;47.188;8.896;2023-09-30T01:42:35;10.03;;;6.33;;
30677;SDS011;17437;47.188;8.896;2023-09-30T01:45:09;11.65;;;6.15;;
30677;SDS011;17437;47.188;8.896;2023-09-30T01:47:43;13.00;;;7.00;;
30677;SDS011;17437;47.188;8.896;2023-09-30T01:50:15;9.70;;;5.87;;
30677;SDS011;17437;47.188;8.896;2023-09-30T01:52:48;11.18;;;6.30;;
30677;SDS011;17437;47.188;8.896;2023-09-30T01:55:20;11.03;;;6.25;;
30677;SDS011;17437;47.188;8.896;2023-09-30T01:57:53;12.37;;;6.95;;
30677;SDS011;17437;47.188;8.896;2023-09-30T02:00:26;11.35;;;6.40;;
30677;SDS011;17437;47.188;8.896;2023-09-30T02:03:00;13.62;;;7.58;;
30677;SDS011;17437;47.188;8.896;2023-09-30T02:05:32;10.28;;;6.60;;
30677;SDS011;17437;47.188;8.896;2023-09-30T02:08:06;12.55;;;6.12;;
30677;SDS011;17437;47.188;8.896;2023-09-30T02:10:39;10.65;;;6.58;;
30677;SDS011;17437;47.188;8.896;2023-09-30T02:13:11;12.28;;;6.50;;
30677;SDS011;17437;47.188;8.896;2023-09-30T02:15:46;9.98;;;6.10;;
30677;SDS011;17437;47.188;8.896;2023-09-30T02:18:19;13.78;;;7.37;;
30677;SDS011;17437;47.188;8.896;2023-09-30T02:20:53;10.85;;;5.87;;
30677;SDS011;17437;47.188;8.896;2023-09-30T02:23:25;10.93;;;6.95;;
30677;SDS011;17437;47.188;8.896;2023-09-30T02:25:58;10.30;;;6.00;;
30677;SDS011;17437;47.188;8.896;2023-09-30T02:28:32;10.80;;;6.50;;
30677;SDS011;17437;47.188;8.896;2023-09-30T02:31:06;11.15;;;6.30;;
30677;SDS011;17437;47.188;8.896;2023-09-30T02:33:39;11.63;;;5.95;;
30677;SDS011;17437;47.188;8.896;2023-09-30T02:36:13;13.20;;;6.60;;
30677;SDS011;17437;47.188;8.896;2023-09-30T02:38:46;13.22;;;7.03;;
30677;SDS011;17437;47.188;8.896;2023-09-30T02:41:19;11.70;;;6.00;;
30677;SDS011;17437;47.188;8.896;2023-09-30T02:43:52;9.40;;;5.67;;
30677;SDS011;17437;47.188;8.896;2023-09-30T02:46:25;11.85;;;6.03;;
30677;SDS011;17437;47.188;8.896;2023-09-30T02:48:58;11.63;;;6.35;;
30677;SDS011;17437;47.188;8.896;2023-09-30T02:51:33;10.63;;;5.65;;
30677;SDS011;17437;47.188;8.896;2023-09-30T02:54:06;10.38;;;6.58;;
30677;SDS011;17437;47.188;8.896;2023-09-30T02:56:39;11.65;;;6.47;;
30677;SDS011;17437;47.188;8.896;2023-09-30T02:59:12;12.33;;;6.80;;
30677;SDS011;17437;47.188;8.896;2023-09-30T03:01:46;13.40;;;7.05;;
30677;SDS011;17437;47.188;8.896;2023-09-30T03:04:18;10.30;;;6.22;;
30677;SDS011;17437;47.188;8.896;2023-09-30T03:06:53;11.85;;;6.37;;
30677;SDS011;17437;47.188;8.896;2023-09-30T03:09:28;13.62;;;7.70;;
30677;SDS011;17437;47.188;8.896;2023-09-30T03:12:01;11.60;;;7.67;;
30677;SDS011;17437;47.188;8.896;2023-09-30T03:14:35;17.48;;;7.12;;
30677;SDS011;17437;47.188;8.896;2023-09-30T03:17:07;14.80;;;6.95;;
30677;SDS011;17437;47.188;8.896;2023-09-30T03:19:41;9.75;;;6.10;;
30677;SDS011;17437;47.188;8.896;2023-09-30T03:22:14;13.35;;;7.10;;
30677;SDS011;17437;47.188;8.896;2023-09-30T03:24:47;10.55;;;6.03;;
30677;SDS011;17437;47.188;8.896;2023-09-30T03:27:20;11.45;;;6.67;;
30677;SDS011;17437;47.188;8.896;2023-09-30T03:29:52;11.78;;;6.75;;
30677;SDS011;17437;47.188;8.896;2023-09-30T03:32:25;9.83;;;6.87;;
30677;SDS011;17437;47.188;8.896;2023-09-30T03:34:59;14.78;;;7.42;;
30677;SDS011;17437;47.188;8.896;2023-09-30T03:37:32;9.30;;;5.78;;
30677;SDS011;17437;47.188;8.896;2023-09-30T03:40:08;8.70;;;5.55;;
30677;SDS011;17437;47.188;8.896;2023-09-30T03:42:44;12.53;;;7.50;;
30677;SDS011;17437;47.188;8.896;2023-09-30T03:45:19;13.83;;;6.70;;
30677;SDS011;17437;47.188;8.896;2023-09-30T03:47:52;9.98;;;5.87;;
30677;SDS011;17437;47.188;8.896;2023-09-30T03:50:24;12.40;;;7.28;;
30677;SDS011;17437;47.188;8.896;2023-09-30T03:53:01;11.18;;;6.72;;
30677;SDS011;17437;47.188;8.896;2023-09-30T03:55:37;9.38;;;6.12;;
30677;SDS011;17437;47.188;8.896;2023-09-30T03:58:10;13.08;;;7.12;;
30677;SDS011;17437;47.188;8.896;2023-09-30T04:00:44;10.90;;;6.20;;
30677;SDS011;17437;47.188;8.896;2023-09-30T04:03:19;13.55;;;6.50;;
30677;SDS011;17437;47.188;8.896;2023-09-30T04:05:52;12.25;;;6.20;;
30677;SDS011;17437;47.188;8.896;2023-09-30T04:08:25;13.60;;;7.72;;
30677;SDS011;17437;47.188;8.896;2023-09-30T04:10:58;12.50;;;6.83;;
30677;SDS011;17437;47.188;8.896;2023-09-30T04:13:31;11.73;;;6.97;;
30677;SDS011;17437;47.188;8.896;2023-09-30T04:16:04;9.95;;;6.25;;
30677;SDS011;17437;47.188;8.896;2023-09-30T04:18:37;11.40;;;6.35;;
30677;SDS011;17437;47.188;8.896;2023-09-30T04:21:11;13.62;;;6.92;;
30677;SDS011;17437;47.188;8.896;2023-09-30T04:23:43;11.70;;;6.92;;
30677;SDS011;17437;47.188;8.896;2023-09-30T04:26:16;15.50;;;8.18;;
30677;SDS011;17437;47.188;8.896;2023-09-30T04:28:49;12.60;;;7.08;;
30677;SDS011;17437;47.188;8.896;2023-09-30T04:31:23;10.88;;;6.20;;
30677;SDS011;17437;47.188;8.896;2023-09-30T04:33:55;13.58;;;6.55;;
30677;SDS011;17437;47.188;8.896;2023-09-30T04:36:28;12.15;;;6.87;;
30677;SDS011;17437;47.188;8.896;2023-09-30T04:39:01;13.70;;;7.12;;
30677;SDS011;17437;47.188;8.896;2023-09-30T04:41:35;14.53;;;7.90;;
30677;SDS011;17437;47.188;8.896;2023-09-30T04:44:09;11.08;;;6.67;;
30677;SDS011;17437;47.188;8.896;2023-09-30T04:46:42;18.50;;;7.08;;
30677;SDS011;17437;47.188;8.896;2023-09-30T04:49:15;18.45;;;7.33;;
30677;SDS011;17437;47.188;8.896;2023-09-30T04:51:49;19.87;;;9.15;;
30677;SDS011;17437;47.188;8.896;2023-09-30T04:54:22;23.75;;;10.05;;
30677;SDS011;17437;47.188;8.896;2023-09-30T04:56:55;28.42;;;11.60;;
30677;SDS011;17437;47.188;8.896;2023-09-30T04:59:27;31.60;;;12.70;;
30677;SDS011;17437;47.188;8.896;2023-09-30T05:02:00;26.77;;;12.78;;
30677;SDS011;17437;47.188;8.896;2023-09-30T05:04:33;29.50;;;12.00;;
30677;SDS011;17437;47.188;8.896;2023-09-30T05:07:06;27.77;;;10.88;;
30677;SDS011;17437;47.188;8.896;2023-09-30T05:09:39;30.72;;;10.63;;
30677;SDS011;17437;47.188;8.896;2023-09-30T05:12:12;31.07;;;13.00;;
30677;SDS011;17437;47.188;8.896;2023-09-30T05:14:46;33.40;;;13.83;;
30677;SDS011;17437;47.188;8.896;2023-09-30T05:17:19;27.15;;;12.33;;
30677;SDS011;17437;47.188;8.896;2023-09-30T05:19:53;26.20;;;11.60;;
30677;SDS011;17437;47.188;8.896;2023-09-30T05:22:26;28.30;;;12.73;;
30677;SDS011;17437;47.188;8.896;2023-09-30T05:24:59;24.63;;;10.63;;
30677;SDS011;17437;47.188;8.896;2023-09-30T05:27:32;24.92;;;11.20;;
30677;SDS011;17437;47.188;8.896;2023-09-30T05:30:07;25.12;;;11.80;;
30677;SDS011;17437;47.188;8.896;2023-09-30T05:32:40;26.45;;;11.93;;
30677;SDS011;17437;47.188;8.896;2023-09-30T05:35:15;28.90;;;11.75;;
30677;SDS011;17437;47.188;8.896;2023-09-30T05:37:48;32.08;;;13.53;;
30677;SDS011;17437;47.188;8.896;2023-09-30T05:40:22;31.70;;;13.10;;
30677;SDS011;17437;47.188;8.896;2023-09-30T05:42:55;29.90;;;12.43;;
30677;SDS011;17437;47.188;8.896;2023-09-30T05:45:30;27.27;;;10.90;;
30677;SDS011;17437;47.188;8.896;2023-09-30T05:48:05;26.20;;;11.57;;
30677;SDS011;17437;47.188;8.896;2023-09-30T05:50:38;24.12;;;10.78;;
30677;SDS011;17437;47.188;8.896;2023-09-30T05:53:10;23.30;;;10.35;;
30677;SDS011;17437;47.188;8.896;2023-09-30T05:55:43;25.08;;;9.08;;
30677;SDS011;17437;47.188;8.896;2023-09-30T05:58:16;23.30;;;10.18;;
30677;SDS011;17437;47.188;8.896;2023-09-30T06:00:49;21.27;;;11.38;;
30677;SDS011;17437;47.188;8.896;2023-09-30T06:03:22;21.80;;;11.22;;
30677;SDS011;17437;47.188;8.896;2023-09-30T06:05:55;19.77;;;10.15;;
30677;SDS011;17437;47.188;8.896;2023-09-30T06:08:27;21.10;;;10.18;;
30677;SDS011;17437;47.188;8.896;2023-09-30T06:11:00;21.02;;;9.83;;
30677;SDS011;17437;47.188;8.896;2023-09-30T06:13:33;23.67;;;10.45;;
30677;SDS011;17437;47.188;8.896;2023-09-30T06:16:06;20.45;;;10.28;;
30677;SDS011;17437;47.188;8.896;2023-09-30T06:18:40;20.95;;;10.28;;
30677;SDS011;17437;47.188;8.896;2023-09-30T06:21:15;18.15;;;10.32;;
30677;SDS011;17437;47.188;8.896;2023-09-30T06:23:50;23.50;;;9.70;;
30677;SDS011;17437;47.188;8.896;2023-09-30T06:26:23;24.77;;;10.38;;
30677;SDS011;17437;47.188;8.896;2023-09-30T06:28:57;20.72;;;8.88;;
30677;SDS011;17437;47.188;8.896;2023-09-30T06:31:30;30.15;;;14.40;;
30677;SDS011;17437;47.188;8.896;2023-09-30T06:34:03;21.62;;;10.18;;
30677;SDS011;17437;47.188;8.896;2023-09-30T06:36:36;24.87;;;9.83;;
30677;SDS011;17437;47.188;8.896;2023-09-30T06:39:10;23.85;;;11.48;;
30677;SDS011;17437;47.188;8.896;2023-09-30T06:41:43;22.58;;;10.70;;
30677;SDS011;17437;47.188;8.896;2023-09-30T06:44:16;23.65;;;11.83;;
30677;SDS011;17437;47.188;8.896;2023-09-30T06:46:49;26.27;;;11.38;;
30677;SDS011;17437;47.188;8.896;2023-09-30T06:49:23;22.48;;;10.72;;
30677;SDS011;17437;47.188;8.896;2023-09-30T06:51:56;20.72;;;10.38;;
30677;SDS011;17437;47.188;8.896;2023-09-30T06:54:29;25.82;;;11.00;;
30677;SDS011;17437;47.188;8.896;2023-09-30T06:57:03;22.58;;;10.80;;
30677;SDS011;17437;47.188;8.896;2023-09-30T06:59:35;24.40;;;11.35;;
30677;SDS011;17437;47.188;8.896;2023-09-30T07:02:08;20.08;;;9.38;;
30677;SDS011;17437;47.188;8.896;2023-09-30T07:04:41;26.60;;;10.50;;
30677;SDS011;17437;47.188;8.896;2023-09-30T07:07:14;21.48;;;9.30;;
30677;SDS011;17437;47.188;8.896;2023-09-30T07:09:46;19.67;;;10.78;;
30677;SDS011;17437;47.188;8.896;2023-09-30T07:12:19;22.58;;;10.53;;
30677;SDS011;17437;47.188;8.896;2023-09-30T07:14:52;22.93;;;9.70;;
30677;SDS011;17437;47.188;8.896;2023-09-30T07:17:25;18.73;;;9.90;;
30677;SDS011;17437;47.188;8.896;2023-09-30T07:19:59;22.52;;;9.13;;
30677;SDS011;17437;47.188;8.896;2023-09-30T07:22:32;18.92;;;10.90;;
30677;SDS011;17437;47.188;8.896;2023-09-30T07:25:07;27.73;;;11.15;;
30677;SDS011;17437;47.188;8.896;2023-09-30T07:27:43;25.00;;;10.45;;
30677;SDS011;17437;47.188;8.896;2023-09-30T07:30:16;22.17;;;10.23;;
30677;SDS011;17437;47.188;8.896;2023-09-30T07:32:49;21.40;;;10.55;;
30677;SDS011;17437;47.188;8.896;2023-09-30T07:35:22;20.02;;;10.90;;
30677;SDS011;17437;47.188;8.896;2023-09-30T07:37:55;18.17;;;9.75;;
30677;SDS011;17437;47.188;8.896;2023-09-30T07:40:28;25.65;;;11.55;;
30677;SDS011;17437;47.188;8.896;2023-09-30T07:43:02;18.75;;;10.93;;
30677;SDS011;17437;47.188;8.896;2023-09-30T07:45:35;21.12;;;10.68;;
30677;SDS011;17437;47.188;8.896;2023-09-30T07:48:08;20.77;;;10.53;;
30677;SDS011;17437;47.188;8.896;2023-09-30T07:50:41;21.07;;;8.85;;
30677;SDS011;17437;47.188;8.896;2023-09-30T07:53:16;21.05;;;9.15;;
30677;SDS011;17437;47.188;8.896;2023-09-30T07:55:49;20.60;;;9.65;;
30677;SDS011;17437;47.188;8.896;2023-09-30T07:58:22;21.57;;;10.00;;
30677;SDS011;17437;47.188;8.896;2023-09-30T08:00:58;19.40;;;9.83;;
30677;SDS011;17437;47.188;8.896;2023-09-30T08:03:32;18.00;;;9.48;;
30677;SDS011;17437;47.188;8.896;2023-09-30T08:06:06;21.40;;;11.73;;
30677;SDS011;17437;47.188;8.896;2023-09-30T08:08:39;17.82;;;9.93;;
30677;SDS011;17437;47.188;8.896;2023-09-30T08:11:12;20.35;;;10.35;;
30677;SDS011;17437;47.188;8.896;2023-09-30T08:13:44;17.32;;;9.03;;
30677;SDS011;17437;47.188;8.896;2023-09-30T08:16:17;17.65;;;9.13;;
30677;SDS011;17437;47.188;8.896;2023-09-30T08:18:50;17.55;;;9.58;;
30677;SDS011;17437;47.188;8.896;2023-09-30T08:21:24;21.68;;;9.68;;
30677;SDS011;17437;47.188;8.896;2023-09-30T08:23:57;16.60;;;8.58;;
30677;SDS011;17437;47.188;8.896;2023-09-30T08:26:30;19.92;;;10.70;;
30677;SDS011;17437;47.188;8.896;2023-09-30T08:29:05;15.72;;;8.98;;
30677;SDS011;17437;47.188;8.896;2023-09-30T08:31:37;20.25;;;9.48;;
30677;SDS011;17437;47.188;8.896;2023-09-30T08:34:10;21.05;;;10.55;;
30677;SDS011;17437;47.188;8.896;2023-09-30T08:36:44;18.07;;;9.55;;
30677;SDS011;17437;47.188;8.896;2023-09-30T08:39:17;16.82;;;8.70;;
30677;SDS011;17437;47.188;8.896;2023-09-30T08:41:50;15.43;;;8.63;;
30677;SDS011;17437;47.188;8.896;2023-09-30T08:44:23;14.45;;;7.78;;
30677;SDS011;17437;47.188;8.896;2023-09-30T08:46:56;12.20;;;5.55;;
30677;SDS011;17437;47.188;8.896;2023-09-30T08:49:29;14.90;;;7.22;;
30677;SDS011;17437;47.188;8.896;2023-09-30T08:52:04;12.80;;;5.87;;
30677;SDS011;17437;47.188;8.896;2023-09-30T08:54:39;13.78;;;5.72;;
30677;SDS011;17437;47.188;8.896;2023-09-30T08:57:12;10.58;;;5.40;;
30677;SDS011;17437;47.188;8.896;2023-09-30T08:59:45;12.35;;;5.50;;
30677;SDS011;17437;47.188;8.896;2023-09-30T09:02:20;11.28;;;6.55;;
30677;SDS011;17437;47.188;8.896;2023-09-30T09:04:53;10.53;;;5.70;;
30677;SDS011;17437;47.188;8.896;2023-09-30T09:07:26;9.98;;;5.72;;
30677;SDS011;17437;47.188;8.896;2023-09-30T09:10:03;12.33;;;5.10;;
30677;SDS011;17437;47.188;8.896;2023-09-30T09:12:38;13.78;;;6.03;;
30677;SDS011;17437;47.188;8.896;2023-09-30T09:15:20;14.13;;;6.08;;
30677;SDS011;17437;47.188;8.896;2023-09-30T09:17:55;11.75;;;5.08;;
30677;SDS011;17437;47.188;8.896;2023-09-30T09:20:29;13.30;;;5.78;;
30677;SDS011;17437;47.188;8.896;2023-09-30T09:23:02;12.68;;;5.45;;
30677;SDS011;17437;47.188;8.896;2023-09-30T09:25:38;13.65;;;5.97;;
30677;SDS011;17437;47.188;8.896;2023-09-30T09:28:11;13.08;;;5.97;;
30677;SDS011;17437;47.188;8.896;2023-09-30T09:30:45;18.77;;;6.90;;
30677;SDS011;17437;47.188;8.896;2023-09-30T09:33:18;11.38;;;6.33;;
30677;SDS011;17437;47.188;8.896;2023-09-30T09:35:55;11.38;;;5.85;;
30677;SDS011;17437;47.188;8.896;2023-09-30T09:38:27;14.10;;;5.90;;
30677;SDS011;17437;47.188;8.896;2023-09-30T09:41:11;12.15;;;5.90;;
30677;SDS011;17437;47.188;8.896;2023-09-30T09:43:43;13.32;;;5.90;;
30677;SDS011;17437;47.188;8.896;2023-09-30T09:46:18;13.78;;;6.22;;
30677;SDS011;17437;47.188;8.896;2023-09-30T09:48:51;11.95;;;5.95;;
30677;SDS011;17437;47.188;8.896;2023-09-30T09:51:27;15.98;;;6.72;;
30677;SDS011;17437;47.188;8.896;2023-09-30T09:54:01;14.40;;;5.47;;
30677;SDS011;17437;47.188;8.896;2023-09-30T09:56:36;13.70;;;7.10;;
30677;SDS011;17437;47.188;8.896;2023-09-30T09:59:09;17.50;;;6.85;;
30677;SDS011;17437;47.188;8.896;2023-09-30T10:01:44;14.60;;;6.35;;
30677;SDS011;17437;47.188;8.896;2023-09-30T10:04:18;12.68;;;5.75;;
30677;SDS011;17437;47.188;8.896;2023-09-30T10:06:52;13.10;;;6.97;;
30677;SDS011;17437;47.188;8.896;2023-09-30T10:09:27;13.18;;;6.75;;
30677;SDS011;17437;47.188;8.896;2023-09-30T10:12:01;10.45;;;5.37;;
30677;SDS011;17437;47.188;8.896;2023-09-30T10:14:37;13.25;;;5.45;;
30677;SDS011;17437;47.188;8.896;2023-09-30T10:17:10;12.28;;;5.70;;
30677;SDS011;17437;47.188;8.896;2023-09-30T10:47:59;14.40;;;5.33;;
30677;SDS011;17437;47.188;8.896;2023-09-30T10:50:52;14.38;;;7.72;;
30677;SDS011;17437;47.188;8.896;2023-09-30T10:53:26;12.28;;;5.42;;
30677;SDS011;17437;47.188;8.896;2023-09-30T10:56:00;12.45;;;5.47;;
30677;SDS011;17437;47.188;8.896;2023-09-30T10:58:41;15.93;;;6.28;;
30677;SDS011;17437;47.188;8.896;2023-09-30T11:01:15;13.03;;;5.87;;
30677;SDS011;17437;47.188;8.896;2023-09-30T11:05:32;14.13;;;5.70;;
30677;SDS011;17437;47.188;8.896;2023-09-30T11:08:06;19.92;;;7.47;;
30677;SDS011;17437;47.188;8.896;2023-09-30T11:10:47;9.43;;;5.22;;
30677;SDS011;17437;47.188;8.896;2023-09-30T11:13:20;17.37;;;8.18;;
30677;SDS011;17437;47.188;8.896;2023-09-30T11:16:00;18.25;;;8.63;;
30677;SDS011;17437;47.188;8.896;2023-09-30T11:18:35;13.48;;;4.70;;
30677;SDS011;17437;47.188;8.896;2023-09-30T11:21:09;11.83;;;6.12;;
30677;SDS011;17437;47.188;8.896;2023-09-30T11:23:42;17.87;;;6.92;;
30677;SDS011;17437;47.188;8.896;2023-09-30T11:26:15;10.90;;;6.05;;
30677;SDS011;17437;47.188;8.896;2023-09-30T11:28:49;16.65;;;7.75;;
30677;SDS011;17437;47.188;8.896;2023-09-30T11:31:22;12.68;;;5.90;;
30677;SDS011;17437;47.188;8.896;2023-09-30T11:33:56;14.35;;;7.97;;
30677;SDS011;17437;47.188;8.896;2023-09-30T11:36:31;16.73;;;7.53;;
30677;SDS011;17437;47.188;8.896;2023-09-30T11:39:05;17.00;;;7.03;;
30677;SDS011;17437;47.188;8.896;2023-09-30T11:41:43;13.10;;;6.58;;
30677;SDS011;17437;47.188;8.896;2023-09-30T11:44:16;17.48;;;8.08;;
30677;SDS011;17437;47.188;8.896;2023-09-30T11:46:50;17.57;;;8.65;;
30677;SDS011;17437;47.188;8.896;2023-09-30T11:49:26;23.27;;;8.68;;
30677;SDS011;17437;47.188;8.896;2023-09-30T11:52:01;11.55;;;5.58;;
30677;SDS011;17437;47.188;8.896;2023-09-30T11:54:35;16.90;;;8.08;;
30677;SDS011;17437;47.188;8.896;2023-09-30T11:57:11;19.70;;;7.42;;
30677;SDS011;17437;47.188;8.896;2023-09-30T11:59:48;14.55;;;6.75;;
30677;SDS011;17437;47.188;8.896;2023-09-30T12:02:21;15.65;;;7.25;;
30677;SDS011;17437;47.188;8.896;2023-09-30T12:04:54;11.25;;;5.40;;
30677;SDS011;17437;47.188;8.896;2023-09-30T12:07:27;16.12;;;7.22;;
30677;SDS011;17437;47.188;8.896;2023-09-30T12:10:00;11.78;;;6.08;;
30677;SDS011;17437;47.188;8.896;2023-09-30T12:12:33;12.73;;;6.75;;
30677;SDS011;17437;47.188;8.896;2023-09-30T12:15:06;13.05;;;5.83;;
30677;SDS011;17437;47.188;8.896;2023-09-30T12:17:40;14.93;;;6.53;;
30677;SDS011;17437;47.188;8.896;2023-09-30T12:20:13;15.13;;;5.90;;
30677;SDS011;17437;47.188;8.896;2023-09-30T12:22:47;12.25;;;6.40;;
30677;SDS011;17437;47.188;8.896;2023-09-30T12:25:21;9.90;;;5.17;;
30677;SDS011;17437;47.188;8.896;2023-09-30T12:27:54;16.65;;;7.47;;
30677;SDS011;17437;47.188;8.896;2023-09-30T12:30:27;13.80;;;7.35;;
30677;SDS011;17437;47.188;8.896;2023-09-30T12:33:02;12.82;;;6.80;;
30677;SDS011;17437;47.188;8.896;2023-09-30T12:35:36;11.08;;;5.83;;
30677;SDS011;17437;47.188;8.896;2023-09-30T12:38:08;14.28;;;7.50;;
30677;SDS011;17437;47.188;8.896;2023-09-30T12:40:41;15.65;;;7.50;;
30677;SDS011;17437;47.188;8.896;2023-09-30T12:43:13;13.08;;;5.85;;
30677;SDS011;17437;47.188;8.896;2023-09-30T12:45:46;14.47;;;7.08;;
30677;SDS011;17437;47.188;8.896;2023-09-30T12:48:22;15.03;;;6.47;;
30677;SDS011;17437;47.188;8.896;2023-09-30T12:50:55;16.93;;;6.97;;
30677;SDS011;17437;47.188;8.896;2023-09-30T12:53:27;18.10;;;8.95;;
30677;SDS011;17437;47.188;8.896;2023-09-30T12:56:00;13.95;;;6.60;;
30677;SDS011;17437;47.188;8.896;2023-09-30T12:58:32;13.85;;;6.17;;
30677;SDS011;17437;47.188;8.896;2023-09-30T13:01:05;13.45;;;6.30;;
30677;SDS011;17437;47.188;8.896;2023-09-30T13:03:40;11.88;;;5.75;;
30677;SDS011;17437;47.188;8.896;2023-09-30T13:06:24;15.35;;;6.80;;
30677;SDS011;17437;47.188;8.896;2023-09-30T13:08:58;15.35;;;6.67;;
30677;SDS011;17437;47.188;8.896;2023-09-30T13:11:32;14.95;;;7.08;;
30677;SDS011;17437;47.188;8.896;2023-09-30T13:14:06;11.88;;;5.83;;
30677;SDS011;17437;47.188;8.896;2023-09-30T13:16:38;16.02;;;6.80;;
30677;SDS011;17437;47.188;8.896;2023-09-30T13:19:11;13.30;;;6.50;;
30677;SDS011;17437;47.188;8.896;2023-09-30T13:21:45;12.30;;;5.97;;
30677;SDS011;17437;47.188;8.896;2023-09-30T13:24:18;17.27;;;8.05;;
30677;SDS011;17437;47.188;8.896;2023-09-30T13:26:51;17.37;;;6.28;;
30677;SDS011;17437;47.188;8.896;2023-09-30T13:29:24;14.35;;;5.70;;
30677;SDS011;17437;47.188;8.896;2023-09-30T13:31:56;10.20;;;5.58;;
30677;SDS011;17437;47.188;8.896;2023-09-30T13:34:30;12.90;;;6.30;;
30677;SDS011;17437;47.188;8.896;2023-09-30T13:37:03;15.32;;;7.05;;
30677;SDS011;17437;47.188;8.896;2023-09-30T13:39:36;14.85;;;7.30;;
30677;SDS011;17437;47.188;8.896;2023-09-30T13:42:09;13.88;;;7.10;;
30677;SDS011;17437;47.188;8.896;2023-09-30T13:44:42;13.08;;;6.40;;
30677;SDS011;17437;47.188;8.896;2023-09-30T13:47:14;17.02;;;8.03;;
30677;SDS011;17437;47.188;8.896;2023-09-30T13:49:47;14.87;;;6.92;;
30677;SDS011;17437;47.188;8.896;2023-09-30T13:52:20;13.68;;;8.10;;
30677;SDS011;17437;47.188;8.896;2023-09-30T13:54:52;15.08;;;6.30;;
30677;SDS011;17437;47.188;8.896;2023-09-30T13:57:25;13.70;;;5.70;;
30677;SDS011;17437;47.188;8.896;2023-09-30T13:59:58;17.17;;;7.12;;
30677;SDS011;17437;47.188;8.896;2023-09-30T14:02:31;12.33;;;6.20;;
30677;SDS011;17437;47.188;8.896;2023-09-30T14:05:06;13.65;;;6.05;;
30677;SDS011;17437;47.188;8.896;2023-09-30T14:07:42;9.95;;;5.50;;
30677;SDS011;17437;47.188;8.896;2023-09-30T14:10:15;13.35;;;7.20;;
30677;SDS011;17437;47.188;8.896;2023-09-30T14:12:48;15.78;;;6.10;;
30677;SDS011;17437;47.188;8.896;2023-09-30T14:15:21;13.40;;;6.22;;
30677;SDS011;17437;47.188;8.896;2023-09-30T14:17:53;12.20;;;5.40;;
30677;SDS011;17437;47.188;8.896;2023-09-30T14:20:27;16.10;;;6.80;;
30677;SDS011;17437;47.188;8.896;2023-09-30T14:23:00;13.55;;;6.03;;
30677;SDS011;17437;47.188;8.896;2023-09-30T14:25:33;12.70;;;5.70;;
30677;SDS011;17437;47.188;8.896;2023-09-30T14:28:05;16.30;;;6.50;;
30677;SDS011;17437;47.188;8.896;2023-09-30T14:30:44;14.33;;;6.12;;
30677;SDS011;17437;47.188;8.896;2023-09-30T14:33:17;10.32;;;5.30;;
30677;SDS011;17437;47.188;8.896;2023-09-30T14:35:50;15.48;;;6.20;;
30677;SDS011;17437;47.188;8.896;2023-09-30T14:38:22;11.22;;;5.25;;
30677;SDS011;17437;47.188;8.896;2023-09-30T14:40:55;11.75;;;5.80;;
30677;SDS011;17437;47.188;8.896;2023-09-30T14:43:28;17.20;;;6.15;;
30677;SDS011;17437;47.188;8.896;2023-09-30T14:46:01;12.98;;;5.97;;
30677;SDS011;17437;47.188;8.896;2023-09-30T14:48:34;11.97;;;5.50;;
30677;SDS011;17437;47.188;8.896;2023-09-30T14:51:06;14.45;;;6.67;;
30677;SDS011;17437;47.188;8.896;2023-09-30T14:53:39;12.45;;;5.45;;
30677;SDS011;17437;47.188;8.896;2023-09-30T14:56:17;11.90;;;5.53;;
30677;SDS011;17437;47.188;8.896;2023-09-30T14:58:52;13.30;;;5.20;;
30677;SDS011;17437;47.188;8.896;2023-09-30T15:01:26;11.03;;;4.90;;
30677;SDS011;17437;47.188;8.896;2023-09-30T15:04:00;11.68;;;5.37;;
30677;SDS011;17437;47.188;8.896;2023-09-30T15:06:32;10.98;;;5.62;;
30677;SDS011;17437;47.188;8.896;2023-09-30T15:09:06;11.40;;;5.10;;
30677;SDS011;17437;47.188;8.896;2023-09-30T15:11:41;15.70;;;6.67;;
30677;SDS011;17437;47.188;8.896;2023-09-30T15:14:14;10.38;;;4.78;;
30677;SDS011;17437;47.188;8.896;2023-09-30T15:16:47;11.68;;;5.78;;
30677;SDS011;17437;47.188;8.896;2023-09-30T15:19:22;19.35;;;5.08;;
30677;SDS011;17437;47.188;8.896;2023-09-30T15:21:54;16.35;;;5.67;;
30677;SDS011;17437;47.188;8.896;2023-09-30T15:24:27;18.20;;;6.20;;
30677;SDS011;17437;47.188;8.896;2023-09-30T15:27:00;15.25;;;7.37;;
30677;SDS011;17437;47.188;8.896;2023-09-30T15:29:33;12.65;;;5.75;;
30677;SDS011;17437;47.188;8.896;2023-09-30T15:32:05;18.90;;;5.92;;
30677;SDS011;17437;47.188;8.896;2023-09-30T15:34:38;14.00;;;6.22;;
30677;SDS011;17437;47.188;8.896;2023-09-30T15:37:10;12.50;;;5.42;;
30677;SDS011;17437;47.188;8.896;2023-09-30T15:39:43;12.58;;;4.62;;